createdAt,value
2023-04-16T00:01:41.141Z,102114.22
2023-04-16T00:04:09.123Z,102108.94
2023-04-16T00:06:36.973Z,102114.44
2023-04-16T00:09:04.758Z,102115.63
2023-04-16T00:11:32.456Z,102115.84
2023-04-16T00:14:00.331Z,102117.50
2023-04-16T00:16:29.544Z,102106.63
2023-04-16T00:18:57.276Z,102103.94
2023-04-16T00:21:25.020Z,102100.44
2023-04-16T00:23:52.774Z,102104.97
2023-04-16T00:26:20.581Z,102099.22
2023-04-16T00:28:48.313Z,102093.41
2023-04-16T00:31:16.035Z,102097.72
2023-04-16T00:33:45.235Z,102100.31
2023-04-16T00:36:12.977Z,102101.91
2023-04-16T00:38:40.713Z,102107.13
2023-04-16T00:41:08.414Z,102106.00
2023-04-16T00:43:36.091Z,102113.19
2023-04-16T00:46:06.787Z,102099.38
2023-04-16T00:48:34.939Z,102100.75
2023-04-16T00:51:06.510Z,102098.56
2023-04-16T00:53:35.548Z,102093.22
2023-04-16T00:56:04.175Z,102092.31
2023-04-16T00:58:32.514Z,102086.06
2023-04-16T01:01:01.171Z,102089.13
2023-04-16T01:03:38.328Z,102092.69
2023-04-16T01:06:08.332Z,102088.81
2023-04-16T01:08:36.456Z,102096.00
2023-04-16T01:11:04.841Z,102096.91
2023-04-16T01:13:32.654Z,102093.19
2023-04-16T01:16:00.695Z,102094.13
2023-04-16T01:18:28.464Z,102094.13
2023-04-16T01:20:57.602Z,102082.69
2023-04-16T01:23:25.478Z,102074.53
2023-04-16T01:25:53.422Z,102075.19
2023-04-16T01:28:21.435Z,102084.13
2023-04-16T01:30:49.152Z,102092.81
2023-04-16T01:33:18.144Z,102098.22
2023-04-16T01:35:46.042Z,102097.00
2023-04-16T01:38:15.163Z,102102.50
2023-04-16T01:40:42.913Z,102103.31
2023-04-16T01:43:10.634Z,102102.41
2023-04-16T01:45:38.460Z,102093.88
2023-04-16T01:48:06.578Z,102093.41
2023-04-16T01:50:34.645Z,102087.88
2023-04-16T01:53:04.951Z,102086.06
2023-04-16T01:55:34.945Z,102082.81
2023-04-16T01:58:02.624Z,102083.72
2023-04-16T02:00:30.522Z,102085.81
2023-04-16T02:02:58.437Z,102082.69
2023-04-16T02:05:26.193Z,102072.84
2023-04-16T02:07:53.910Z,102085.50
2023-04-16T02:10:22.158Z,102076.28
2023-04-16T02:12:51.264Z,102078.34
2023-04-16T02:15:19.116Z,102083.41
2023-04-16T02:17:48.624Z,102086.22
2023-04-16T02:20:17.700Z,102090.31
2023-04-16T02:22:45.549Z,102095.09
2023-04-16T02:25:14.259Z,102093.03
2023-04-16T02:27:42.008Z,102097.19
2023-04-16T02:30:12.407Z,102087.69
2023-04-16T02:32:40.311Z,102082.34
2023-04-16T02:35:08.754Z,102077.03
2023-04-16T02:37:36.442Z,102081.41
2023-04-16T02:40:04.160Z,102088.69
2023-04-16T02:42:31.849Z,102080.47
2023-04-16T02:44:59.530Z,102086.69
2023-04-16T02:47:28.656Z,102089.47
2023-04-16T02:49:56.415Z,102087.38
2023-04-16T02:52:24.165Z,102085.41
2023-04-16T02:54:51.824Z,102084.66
2023-04-16T02:57:19.557Z,102087.47
2023-04-16T02:59:47.285Z,102076.97
2023-04-16T03:02:15.056Z,102078.78
2023-04-16T03:04:44.333Z,102079.66
2023-04-16T03:07:13.008Z,102078.16
2023-04-16T03:09:40.794Z,102085.84
2023-04-16T03:12:08.551Z,102084.03
2023-04-16T03:14:36.248Z,102089.47
2023-04-16T03:17:03.973Z,102088.72
2023-04-16T03:19:31.743Z,102083.69
2023-04-16T03:22:00.805Z,102082.38
2023-04-16T03:24:29.450Z,102077.84
2023-04-16T03:26:58.864Z,102075.06
2023-04-16T03:29:27.079Z,102070.84
2023-04-16T03:31:54.767Z,102062.84
2023-04-16T03:34:22.405Z,102068.31
2023-04-16T03:36:50.071Z,102062.06
2023-04-16T03:39:19.170Z,102065.97
2023-04-16T03:41:46.945Z,102061.63
2023-04-16T03:44:14.681Z,102055.53
2023-04-16T03:46:42.447Z,102059.97
2023-04-16T03:49:10.371Z,102061.84
2023-04-16T03:51:38.220Z,102057.19
2023-04-16T03:54:05.940Z,102060.69
2023-04-16T03:56:35.148Z,102061.09
2023-04-16T03:59:02.857Z,102057.66
2023-04-16T04:01:30.597Z,102056.75
2023-04-16T04:03:58.493Z,102054.38
2023-04-16T04:06:26.435Z,102055.41
2023-04-16T04:08:54.302Z,102055.53
2023-04-16T04:11:22.269Z,102045.41
2023-04-16T04:13:51.268Z,102050.88
2023-04-16T04:16:19.024Z,102052.03
2023-04-16T04:18:46.919Z,102051.34
2023-04-16T04:21:14.660Z,102063.97
2023-04-16T04:23:43.626Z,102054.16
2023-04-16T04:26:11.346Z,102052.53
2023-04-16T04:28:39.099Z,102055.97
2023-04-16T04:31:08.220Z,102055.25
2023-04-16T04:33:36.076Z,102066.22
2023-04-16T04:36:03.813Z,102066.34
2023-04-16T04:38:31.770Z,102061.16
2023-04-16T04:41:00.346Z,102062.78
2023-04-16T04:43:28.075Z,102058.56
2023-04-16T04:45:55.990Z,102063.06
2023-04-16T04:48:26.779Z,102064.25
2023-04-16T04:50:54.760Z,102058.75
2023-04-16T04:53:22.470Z,102058.47
2023-04-16T04:55:53.194Z,102066.28
2023-04-16T04:58:23.266Z,102059.28
2023-04-16T05:00:51.071Z,102061.25
2023-04-16T05:03:22.233Z,102062.22
2023-04-16T05:05:51.332Z,102061.41
2023-04-16T05:08:19.073Z,102062.16
2023-04-16T05:10:47.026Z,102065.59
2023-04-16T05:13:14.989Z,102064.16
2023-04-16T05:15:42.736Z,102067.66
2023-04-16T05:18:10.445Z,102061.59
2023-04-16T05:20:38.824Z,102074.84
2023-04-16T05:23:07.908Z,102076.50
2023-04-16T05:25:35.826Z,102079.06
2023-04-16T05:28:03.512Z,102076.28
2023-04-16T05:30:31.272Z,102088.63
2023-04-16T05:32:59.067Z,102083.88
2023-04-16T05:35:27.746Z,102082.03
2023-04-16T05:37:55.501Z,102086.53
2023-04-16T05:40:24.608Z,102072.50
2023-04-16T05:42:52.295Z,102075.94
2023-04-16T05:45:20.127Z,102081.22
2023-04-16T05:47:47.951Z,102083.84
2023-04-16T05:50:16.005Z,102089.31
2023-04-16T05:52:44.047Z,102091.78
2023-04-16T05:55:11.789Z,102090.94
2023-04-16T05:57:40.844Z,102099.41
2023-04-16T06:00:09.430Z,102094.94
2023-04-16T06:02:37.426Z,102090.59
2023-04-16T06:05:05.988Z,102102.06
2023-04-16T06:07:33.737Z,102104.16
2023-04-16T06:10:01.477Z,102107.41
2023-04-16T06:12:29.291Z,102112.28
2023-04-16T06:14:58.443Z,102103.00
2023-04-16T06:17:27.148Z,102116.59
2023-04-16T06:19:54.966Z,102111.84
2023-04-16T06:22:22.794Z,102112.19
2023-04-16T06:24:50.608Z,102115.19
2023-04-16T06:27:18.307Z,102112.16
2023-04-16T06:29:46.156Z,102116.31
2023-04-16T06:32:17.217Z,102113.69
2023-04-16T06:34:44.958Z,102117.09
2023-04-16T06:37:12.678Z,102120.53
2023-04-16T06:39:40.740Z,102121.22
2023-04-16T06:42:08.595Z,102117.47
2023-04-16T06:44:36.920Z,102121.34
2023-04-16T06:47:04.716Z,102134.00
2023-04-16T06:49:33.879Z,102141.09
2023-04-16T06:52:02.824Z,102134.56
2023-04-16T06:54:32.328Z,102143.38
2023-04-16T06:57:00.087Z,102150.81
2023-04-16T06:59:27.746Z,102156.63
2023-04-16T07:01:55.527Z,102151.22
2023-04-16T07:04:24.148Z,102155.25
2023-04-16T07:06:53.219Z,102153.00
2023-04-16T07:09:20.945Z,102155.81
2023-04-16T07:11:48.651Z,102161.22
2023-04-16T07:14:16.417Z,102161.25
2023-04-16T07:16:44.199Z,102169.41
2023-04-16T07:19:12.455Z,102172.97
2023-04-16T07:21:41.941Z,102170.69
2023-04-16T07:24:11.184Z,102169.59
2023-04-16T07:26:38.994Z,102170.88
2023-04-16T07:29:06.787Z,102167.50
2023-04-16T07:31:34.592Z,102174.00
2023-04-16T07:34:02.370Z,102155.94
2023-04-16T07:36:30.148Z,102163.63
2023-04-16T07:38:57.976Z,102167.06
2023-04-16T07:41:27.252Z,102162.28
2023-04-16T07:43:54.925Z,102166.50
2023-04-16T07:46:24.727Z,102172.34
2023-04-16T07:48:52.758Z,102176.25
2023-04-16T07:51:20.508Z,102176.50
2023-04-16T07:53:48.180Z,102167.69
2023-04-16T07:56:15.999Z,102170.06
2023-04-16T07:58:44.987Z,102172.91
2023-04-16T08:01:12.822Z,102179.03
2023-04-16T08:03:40.899Z,102178.28
2023-04-16T08:06:08.814Z,102171.81
2023-04-16T08:08:36.538Z,102167.31
2023-04-16T08:11:04.359Z,102174.63
2023-04-16T08:13:33.560Z,102172.41
2023-04-16T08:16:02.892Z,102167.44
2023-04-16T08:18:30.724Z,102160.13
2023-04-16T08:20:58.507Z,102168.41
2023-04-16T08:23:26.263Z,102169.16
2023-04-16T08:25:53.927Z,102167.47
2023-04-16T08:28:21.610Z,102161.00
2023-04-16T08:30:49.301Z,102162.84
2023-04-16T08:33:18.417Z,102169.69
2023-04-16T08:35:46.200Z,102172.50
2023-04-16T08:38:13.941Z,102168.31
2023-04-16T08:40:43.038Z,102164.47
2023-04-16T08:43:12.392Z,102166.34
2023-04-16T08:45:41.925Z,102162.63
2023-04-16T08:48:12.441Z,102170.06
2023-04-16T08:50:42.223Z,102169.44
2023-04-16T08:53:17.354Z,102163.44
2023-04-16T08:55:49.068Z,102165.13
2023-04-16T08:58:20.766Z,102172.63
2023-04-16T09:00:49.597Z,102170.94
2023-04-16T09:03:19.825Z,102172.97
2023-04-16T09:05:50.524Z,102160.03
2023-04-16T09:08:18.679Z,102170.84
2023-04-16T09:10:47.313Z,102171.38
2023-04-16T09:13:16.947Z,102170.03
2023-04-16T09:15:45.374Z,102172.00
2023-04-16T09:18:13.146Z,102172.16
2023-04-16T09:20:41.044Z,102166.78
2023-04-16T09:23:10.336Z,102171.47
2023-04-16T09:25:38.640Z,102173.03
2023-04-16T09:28:06.610Z,102169.78
2023-04-16T09:30:34.881Z,102172.63
2023-04-16T09:33:22.500Z,102174.53
2023-04-16T09:35:52.701Z,102174.53
2023-04-16T09:38:22.043Z,102170.88
2023-04-16T09:41:06.535Z,102169.66
2023-04-16T09:43:34.245Z,102170.56
2023-04-16T09:46:03.774Z,102175.22
2023-04-16T09:48:36.015Z,102171.06
2023-04-16T09:51:06.784Z,102174.66
2023-04-16T09:53:36.363Z,102168.50
2023-04-16T09:56:07.340Z,102173.81
2023-04-16T09:58:37.551Z,102175.13
2023-04-16T10:01:08.505Z,102182.91
2023-04-16T10:03:38.243Z,102172.63
2023-04-16T10:06:10.314Z,102180.97
2023-04-16T10:08:44.530Z,102182.75
2023-04-16T10:11:12.435Z,102185.84
2023-04-16T10:13:40.150Z,102181.84
2023-04-16T10:16:08.941Z,102190.78
2023-04-16T10:18:38.169Z,102179.84
2023-04-16T10:21:06.694Z,102184.19
2023-04-16T10:23:35.052Z,102181.06
2023-04-16T10:26:04.141Z,102179.88
2023-04-16T10:28:35.251Z,102177.84
2023-04-16T10:31:04.651Z,102173.31
2023-04-16T10:33:34.964Z,102170.31
2023-04-16T10:36:10.491Z,102177.75
2023-04-16T10:38:40.422Z,102176.09
2023-04-16T10:41:09.801Z,102174.22
2023-04-16T10:43:42.156Z,102173.16
2023-04-16T10:46:21.189Z,102170.53
2023-04-16T10:48:50.956Z,102167.59
2023-04-16T10:51:27.839Z,102172.09
2023-04-16T10:53:56.614Z,102174.28
2023-04-16T10:56:26.780Z,102172.13
2023-04-16T10:58:56.862Z,102174.75
2023-04-16T11:01:32.179Z,102170.28
2023-04-16T11:04:04.731Z,102166.38
2023-04-16T11:06:32.849Z,102164.50
2023-04-16T11:09:00.565Z,102168.50
2023-04-16T11:11:39.253Z,102165.47
2023-04-16T11:14:09.849Z,102161.72
2023-04-16T11:16:41.779Z,102164.66
2023-04-16T11:19:16.303Z,102165.88
2023-04-16T11:21:46.269Z,102166.19
2023-04-16T11:24:14.028Z,102160.06
2023-04-16T11:26:43.086Z,102157.28
2023-04-16T11:29:15.547Z,102157.69
2023-04-16T11:31:43.374Z,102152.66
2023-04-16T11:34:11.402Z,102152.09
2023-04-16T11:36:44.477Z,102155.97
2023-04-16T11:39:12.471Z,102143.88
2023-04-16T11:41:45.056Z,102136.44
2023-04-16T11:44:20.064Z,102137.63
2023-04-16T11:46:47.857Z,102144.03
2023-04-16T11:49:17.334Z,102141.31
2023-04-16T11:51:46.703Z,102142.34
2023-04-16T11:54:21.022Z,102142.47
2023-04-16T11:56:51.762Z,102137.84
2023-04-16T11:59:22.835Z,102123.66
2023-04-16T12:01:52.200Z,102127.06
2023-04-16T12:04:22.266Z,102130.31
2023-04-16T12:07:06.185Z,102125.16
2023-04-16T12:09:36.089Z,102118.00
2023-04-16T12:12:07.656Z,102124.69
2023-04-16T12:14:35.585Z,102118.41
2023-04-16T12:17:18.947Z,102130.78
2023-04-16T12:19:49.742Z,102124.22
2023-04-16T12:22:17.492Z,102120.34
2023-04-16T12:24:45.177Z,102121.94
2023-04-16T12:27:16.450Z,102116.28
2023-04-16T12:29:44.126Z,102117.13
2023-04-16T12:32:23.424Z,102118.19
2023-04-16T12:34:51.733Z,102118.47
2023-04-16T12:37:19.488Z,102117.97
2023-04-16T12:39:48.126Z,102115.69
2023-04-16T12:42:17.330Z,102113.25
2023-04-16T12:44:45.003Z,102111.53
2023-04-16T12:47:12.718Z,102103.31
2023-04-16T12:49:40.611Z,102103.88
2023-04-16T12:52:08.344Z,102097.53
2023-04-16T12:54:36.086Z,102111.19
2023-04-16T12:57:03.893Z,102101.94
2023-04-16T12:59:32.977Z,102099.41
2023-04-16T13:02:02.451Z,102097.41
2023-04-16T13:04:30.278Z,102093.50
2023-04-16T13:06:58.178Z,102093.19
2023-04-16T13:09:27.043Z,102091.91
2023-04-16T13:11:54.771Z,102095.38
2023-04-16T13:14:24.383Z,102097.19
2023-04-16T13:16:53.445Z,102089.59
2023-04-16T13:19:21.220Z,102089.25
2023-04-16T13:21:48.953Z,102095.19
2023-04-16T13:24:16.767Z,102093.94
2023-04-16T13:26:44.574Z,102086.84
2023-04-16T13:29:12.715Z,102085.59
2023-04-16T13:31:40.717Z,102077.50
2023-04-16T13:34:09.825Z,102078.00
2023-04-16T13:36:37.577Z,102070.91
2023-04-16T13:39:10.695Z,102072.41
2023-04-16T13:41:38.730Z,102078.09
2023-04-16T13:44:06.761Z,102069.25
2023-04-16T13:46:34.643Z,102069.94
2023-04-16T13:49:02.430Z,102064.81
2023-04-16T13:51:32.043Z,102069.88
2023-04-16T13:53:59.775Z,102072.81
2023-04-16T13:56:27.565Z,102073.03
2023-04-16T13:58:55.434Z,102069.00
2023-04-16T14:01:23.399Z,102068.16
2023-04-16T14:03:51.389Z,102068.22
2023-04-16T14:06:19.203Z,102057.63
2023-04-16T14:08:48.281Z,102050.88
2023-04-16T14:11:16.108Z,102059.34
2023-04-16T14:13:43.829Z,102051.16
2023-04-16T14:16:11.773Z,102053.75
2023-04-16T14:18:42.367Z,102049.09
2023-04-16T14:21:10.176Z,102042.38
2023-04-16T14:23:37.906Z,102044.13
2023-04-16T14:26:07.057Z,102041.44
2023-04-16T14:28:35.491Z,102046.25
2023-04-16T14:31:03.442Z,102041.88
2023-04-16T14:33:32.380Z,102037.13
2023-04-16T14:36:02.669Z,102032.13
2023-04-16T14:38:31.407Z,102037.06
2023-04-16T14:41:00.200Z,102034.50
2023-04-16T14:43:29.396Z,102030.19
2023-04-16T14:45:58.614Z,102022.50
2023-04-16T14:48:26.448Z,102022.88
2023-04-16T14:50:54.920Z,102018.53
2023-04-16T14:53:24.112Z,102011.50
2023-04-16T14:55:53.129Z,102018.00
2023-04-16T14:58:21.843Z,102010.72
2023-04-16T15:00:50.956Z,102012.94
2023-04-16T15:03:18.870Z,102012.59
2023-04-16T15:05:50.829Z,102012.06
2023-04-16T15:08:18.608Z,102005.53
2023-04-16T15:10:46.345Z,102000.38
2023-04-16T15:13:14.130Z,101994.78
2023-04-16T15:15:41.869Z,101990.69
2023-04-16T15:18:11.188Z,101993.63
2023-04-16T15:20:38.905Z,101995.31
2023-04-16T15:23:06.684Z,101992.44
2023-04-16T15:25:34.585Z,101988.28
2023-04-16T15:28:02.749Z,101987.56
2023-04-16T15:30:32.134Z,101984.50
2023-04-16T15:33:00.015Z,101986.38
2023-04-16T15:35:29.186Z,101986.03
2023-04-16T15:37:56.896Z,101982.44
2023-04-16T15:40:26.159Z,101982.81
2023-04-16T15:42:53.955Z,101982.84
2023-04-16T15:45:21.953Z,101980.31
2023-04-16T15:47:51.334Z,101973.19
2023-04-16T15:50:19.490Z,101978.06
2023-04-16T15:52:48.771Z,101968.63
2023-04-16T15:55:17.602Z,101969.28
2023-04-16T15:57:45.523Z,101975.91
2023-04-16T16:00:15.560Z,101973.16
2023-04-16T16:02:44.489Z,101969.34
2023-04-16T16:05:13.772Z,101968.13
2023-04-16T16:07:41.739Z,101963.38
2023-04-16T16:10:13.143Z,101966.63
2023-04-16T16:12:41.263Z,101966.88
2023-04-16T16:15:10.892Z,101970.91
2023-04-16T16:17:38.779Z,101965.91
2023-04-16T16:20:10.264Z,101972.09
2023-04-16T16:22:39.115Z,101963.84
2023-04-16T16:25:08.146Z,101956.47
2023-04-16T16:27:37.294Z,101958.13
2023-04-16T16:30:07.329Z,101965.81
2023-04-16T16:32:35.121Z,101954.78
2023-04-16T16:35:02.913Z,101965.81
2023-04-16T16:37:30.738Z,101961.34
2023-04-16T16:39:58.459Z,101960.25
2023-04-16T16:42:26.655Z,101953.75
2023-04-16T16:44:57.449Z,101966.22
2023-04-16T16:47:25.448Z,101957.78
2023-04-16T16:49:54.649Z,101956.34
2023-04-16T16:52:24.645Z,101953.97
2023-04-16T16:54:52.439Z,101953.47
2023-04-16T16:57:20.492Z,101951.72
2023-04-16T16:59:48.426Z,101955.84
2023-04-16T17:02:17.672Z,101950.00
2023-04-16T17:04:45.602Z,101948.09
2023-04-16T17:07:13.576Z,101943.03
2023-04-16T17:09:41.301Z,101942.19
2023-04-16T17:12:09.246Z,101945.97
2023-04-16T17:14:36.998Z,101947.81
2023-04-16T17:17:04.728Z,101951.72
2023-04-16T17:19:33.833Z,101933.50
2023-04-16T17:22:01.643Z,101947.88
2023-04-16T17:24:29.468Z,101945.56
2023-04-16T17:26:58.439Z,101940.63
2023-04-16T17:29:26.641Z,101947.38
2023-04-16T17:31:54.763Z,101938.75
2023-04-16T17:34:22.689Z,101943.91
2023-04-16T17:36:51.758Z,101942.16
2023-04-16T17:39:20.721Z,101943.31
2023-04-16T17:41:54.128Z,101950.50
2023-04-16T17:44:22.999Z,101951.41
2023-04-16T17:46:50.830Z,101947.19
2023-04-16T17:49:18.580Z,101950.19
2023-04-16T17:51:46.377Z,101951.56
2023-04-16T17:54:15.643Z,101952.34
2023-04-16T17:56:43.352Z,101961.50
2023-04-16T17:59:11.456Z,101956.06
2023-04-16T18:01:39.375Z,101951.38
2023-04-16T18:04:07.432Z,101945.97
2023-04-16T18:06:35.396Z,101954.84
2023-04-16T18:09:04.921Z,101963.38
2023-04-16T18:11:34.212Z,101956.94
2023-04-16T18:14:01.915Z,101953.09
2023-04-16T18:16:29.662Z,101958.16
2023-04-16T18:18:57.655Z,101957.91
2023-04-16T18:21:25.858Z,101964.00
2023-04-16T18:23:53.633Z,101963.63
2023-04-16T18:26:22.951Z,101964.22
2023-04-16T18:28:52.171Z,101956.78
2023-04-16T18:31:21.265Z,101950.28
2023-04-16T18:33:57.577Z,101939.69
2023-04-16T18:36:26.711Z,101948.09
2023-04-16T18:41:26.923Z,101950.72
2023-04-16T18:43:56.022Z,101950.81
2023-04-16T18:46:23.856Z,101950.59
2023-04-16T18:48:51.756Z,101958.63
2023-04-16T18:51:19.503Z,101959.59
2023-04-16T18:53:47.215Z,101952.53
2023-04-16T18:56:14.920Z,101956.13
2023-04-16T18:58:43.182Z,101955.75
2023-04-16T19:01:13.937Z,101955.22
2023-04-16T19:03:41.756Z,101948.19
2023-04-16T19:06:09.699Z,101951.28
2023-04-16T19:08:37.404Z,101955.22
2023-04-16T19:11:05.157Z,101957.81
2023-04-16T19:13:32.904Z,101960.97
2023-04-16T19:16:02.070Z,101965.66
2023-04-16T19:18:31.330Z,101970.91
2023-04-16T19:21:02.352Z,101969.72
2023-04-16T19:23:30.351Z,101970.84
2023-04-16T19:25:58.103Z,101970.38
2023-04-16T19:28:26.265Z,101983.50
2023-04-16T19:30:54.489Z,101980.47
2023-04-16T19:33:22.219Z,101976.31
2023-04-16T19:35:51.331Z,101984.06
2023-04-16T19:38:19.040Z,101988.22
2023-04-16T19:40:47.413Z,101992.28
2023-04-16T19:43:15.592Z,101987.16
2023-04-16T19:45:44.388Z,101993.78
2023-04-16T19:48:12.343Z,101994.31
2023-04-16T19:50:41.268Z,102001.78
2023-04-16T19:53:10.739Z,101992.78
2023-04-16T19:55:40.391Z,102001.78
2023-04-16T19:58:08.266Z,102008.75
2023-04-16T20:00:38.325Z,102011.03
2023-04-16T20:03:06.466Z,102006.84
2023-04-16T20:05:34.642Z,102006.25
2023-04-16T20:08:02.384Z,102010.75
2023-04-16T20:10:31.949Z,102007.81
2023-04-16T20:12:59.736Z,102014.56
2023-04-16T20:15:27.427Z,102013.34
2023-04-16T20:17:56.055Z,102013.59
2023-04-16T20:20:23.996Z,102013.84
2023-04-16T20:22:51.788Z,102018.44
2023-04-16T20:25:20.667Z,102015.50
2023-04-16T20:27:49.790Z,102021.47
2023-04-16T20:30:17.499Z,102017.72
2023-04-16T20:32:45.291Z,102018.25
2023-04-16T20:35:13.014Z,102021.06
2023-04-16T20:37:42.297Z,102017.78
2023-04-16T20:40:11.068Z,102019.78
2023-04-16T20:42:38.868Z,102024.84
2023-04-16T20:45:09.724Z,102028.22
2023-04-16T20:47:37.449Z,102022.44
2023-04-16T20:50:05.738Z,102015.78
2023-04-16T20:52:33.518Z,102011.13
2023-04-16T20:55:01.471Z,102017.63
2023-04-16T20:57:29.655Z,102011.50
2023-04-16T20:59:58.390Z,102009.47
2023-04-16T21:02:28.219Z,102006.03
2023-04-16T21:04:56.323Z,102005.19
2023-04-16T21:07:24.064Z,102002.78
2023-04-16T21:09:51.798Z,101998.47
2023-04-16T21:12:19.539Z,102003.19
2023-04-16T21:14:47.282Z,102003.06
2023-04-16T21:17:14.965Z,101994.63
2023-04-16T21:19:44.074Z,101994.31
2023-04-16T21:22:11.770Z,101996.81
2023-04-16T21:24:39.481Z,101979.88
2023-04-16T21:27:07.128Z,101985.22
2023-04-16T21:29:34.831Z,101985.38
2023-04-16T21:32:02.495Z,101982.47
2023-04-16T21:34:30.157Z,101984.41
2023-04-16T21:36:59.322Z,101978.38
2023-04-16T21:39:30.858Z,101977.44
2023-04-16T21:41:58.653Z,101979.16
2023-04-16T21:44:26.513Z,101986.00
2023-04-16T21:46:54.300Z,101984.28
2023-04-16T21:49:22.047Z,101978.91
2023-04-16T21:51:50.153Z,101974.69
2023-04-16T21:54:20.642Z,101982.06
2023-04-16T21:56:48.346Z,101976.84
2023-04-16T21:59:16.032Z,101972.84
2023-04-16T22:01:43.886Z,101977.19
2023-04-16T22:04:12.185Z,101974.00
2023-04-16T22:06:40.395Z,101970.91
2023-04-16T22:09:08.131Z,101984.72
2023-04-16T22:11:38.329Z,101972.63
2023-04-16T22:14:08.315Z,101979.03
2023-04-16T22:16:36.295Z,101977.94
2023-04-16T22:19:04.029Z,101972.25
2023-04-16T22:21:32.360Z,101968.91
2023-04-16T22:24:00.144Z,101961.88
2023-04-16T22:26:27.864Z,101965.75
2023-04-16T22:28:56.961Z,101961.16
2023-04-16T22:31:24.762Z,101964.09
2023-04-16T22:33:52.549Z,101954.69
2023-04-16T22:36:21.031Z,101961.81
2023-04-16T22:38:48.747Z,101961.81
2023-04-16T22:41:16.469Z,101960.53
2023-04-16T22:43:44.204Z,101963.84
2023-04-16T22:46:13.422Z,101964.94
2023-04-16T22:48:41.219Z,101969.03
2023-04-16T22:51:10.061Z,101966.72
2023-04-16T22:53:38.145Z,101957.63
2023-04-16T22:56:06.372Z,101964.16
2023-04-16T22:58:34.154Z,101959.28
2023-04-16T23:01:02.022Z,101960.59
2023-04-16T23:03:31.400Z,101962.53
2023-04-16T23:05:59.260Z,101964.38
2023-04-16T23:08:26.950Z,101962.66
2023-04-16T23:10:54.697Z,101967.09
2023-04-16T23:13:22.540Z,101964.53
2023-04-16T23:15:50.366Z,101957.88
2023-04-16T23:18:18.160Z,101970.00
2023-04-16T23:20:47.249Z,101975.47
2023-04-16T23:23:14.976Z,101959.44
2023-04-16T23:25:42.804Z,101964.31
2023-04-16T23:28:10.569Z,101968.88
2023-04-16T23:30:38.380Z,101966.44
2023-04-16T23:33:06.125Z,101970.78
2023-04-16T23:35:33.906Z,101963.16
2023-04-16T23:38:03.373Z,101962.53
2023-04-16T23:40:31.258Z,101968.66
2023-04-16T23:42:58.952Z,101970.59
2023-04-16T23:45:26.759Z,101966.88
2023-04-16T23:47:54.521Z,101968.06
2023-04-16T23:50:22.289Z,101967.97
2023-04-16T23:52:49.997Z,101966.31
2023-04-16T23:55:19.050Z,101969.38
2023-04-16T23:57:46.795Z,101967.34
